createdAt,value
2022-10-20T00:01:08.726Z,14.90
2022-10-20T00:03:35.735Z,14.30
2022-10-20T00:06:16.939Z,14.16
2022-10-20T00:08:44.563Z,14.03
2022-10-20T00:11:13.474Z,14.01
2022-10-20T00:13:41.174Z,14.36
2022-10-20T00:16:08.474Z,14.41
2022-10-20T00:18:35.675Z,14.45
2022-10-20T00:21:07.405Z,14.00
2022-10-20T00:23:34.403Z,14.54
2022-10-20T00:26:07.594Z,14.50
2022-10-20T00:28:35.298Z,13.84
2022-10-20T00:31:02.353Z,14.09
2022-10-20T00:33:29.314Z,13.74
2022-10-20T00:36:02.136Z,13.86
2022-10-20T00:38:29.226Z,13.45
2022-10-20T00:40:56.220Z,12.28
2022-10-20T00:43:23.432Z,11.88
2022-10-20T00:45:56.622Z,12.73
2022-10-20T00:48:27.023Z,12.79
2022-10-20T00:50:55.563Z,13.09
2022-10-20T00:53:24.213Z,13.17
2022-10-20T00:55:52.531Z,12.31
2022-10-20T00:58:19.915Z,11.74
2022-10-20T01:00:48.988Z,12.19
2022-10-20T01:03:26.619Z,12.48
2022-10-20T01:05:53.597Z,11.86
2022-10-20T01:08:20.484Z,12.99
2022-10-20T01:11:07.144Z,13.23
2022-10-20T01:13:51.987Z,13.33
2022-10-20T01:16:54.508Z,13.22
2022-10-20T01:19:43.140Z,12.70
2022-10-20T01:22:25.234Z,13.12
2022-10-20T01:25:04.192Z,12.97
2022-10-20T01:27:37.983Z,13.34
2022-10-20T01:30:07.544Z,13.21
2022-10-20T01:33:02.090Z,12.36
2022-10-20T01:35:42.036Z,11.56
2022-10-20T01:38:16.604Z,11.39
2022-10-20T01:40:50.296Z,11.54
2022-10-20T01:43:19.864Z,10.92
2022-10-20T01:45:49.890Z,12.04
2022-10-20T01:48:20.284Z,14.02
2022-10-20T01:50:47.908Z,13.97
2022-10-20T01:53:15.134Z,13.43
2022-10-20T01:55:42.065Z,13.33
2022-10-20T01:58:16.596Z,13.24
2022-10-20T02:00:45.366Z,11.87
2022-10-20T02:03:32.324Z,11.89
2022-10-20T02:06:08.853Z,12.11
2022-10-20T02:08:48.746Z,12.49
2022-10-20T02:11:30.957Z,12.78
2022-10-20T02:13:58.422Z,11.79
2022-10-20T02:16:34.770Z,12.89
2022-10-20T02:19:02.506Z,12.98
2022-10-20T02:21:29.403Z,11.67
2022-10-20T02:23:57.377Z,11.27
2022-10-20T02:26:25.697Z,11.62
2022-10-20T02:28:59.675Z,12.80
2022-10-20T02:31:26.808Z,13.13
2022-10-20T02:33:55.632Z,12.21
2022-10-20T02:36:26.332Z,13.40
2022-10-20T02:38:53.380Z,13.84
2022-10-20T02:41:20.267Z,12.43
2022-10-20T02:43:47.157Z,12.39
2022-10-20T02:48:45.879Z,13.69
2022-10-20T02:51:13.470Z,12.99
2022-10-20T02:53:40.398Z,13.74
2022-10-20T02:56:08.395Z,13.61
2022-10-20T02:58:35.410Z,12.40
2022-10-20T03:01:02.947Z,11.75
2022-10-20T03:03:29.890Z,12.11
2022-10-20T03:05:56.861Z,12.92
2022-10-20T03:08:23.805Z,12.58
2022-10-20T03:10:50.672Z,12.62
2022-10-20T03:13:17.559Z,12.98
2022-10-20T03:15:44.444Z,12.42
2022-10-20T03:18:11.335Z,12.70
2022-10-20T03:20:38.206Z,12.41
2022-10-20T03:23:04.907Z,11.06
2022-10-20T03:25:33.824Z,11.11
2022-10-20T03:28:00.707Z,11.12
2022-10-20T03:30:27.437Z,10.74
2022-10-20T03:32:54.754Z,10.65
2022-10-20T03:35:21.619Z,11.34
2022-10-20T03:37:48.314Z,11.05
2022-10-20T03:40:15.277Z,11.68
2022-10-20T03:42:42.191Z,11.32
2022-10-20T03:45:09.461Z,11.29
2022-10-20T03:47:36.348Z,11.50
2022-10-20T03:52:36.832Z,11.51
2022-10-20T03:55:04.284Z,12.10
2022-10-20T03:57:31.179Z,11.57
2022-10-20T03:59:58.037Z,12.06
2022-10-20T04:02:33.013Z,12.02
2022-10-20T04:05:00.458Z,12.01
2022-10-20T04:07:27.387Z,12.21
2022-10-20T04:09:54.342Z,12.72
2022-10-20T04:12:21.165Z,12.10
2022-10-20T04:14:48.996Z,12.75
2022-10-20T04:17:15.874Z,11.80
2022-10-20T04:19:42.757Z,12.11
2022-10-20T04:22:09.411Z,12.15
2022-10-20T04:24:36.367Z,11.57
2022-10-20T04:27:03.739Z,10.95
2022-10-20T04:29:31.255Z,10.73
2022-10-20T04:31:58.273Z,11.91
2022-10-20T04:34:39.220Z,12.03
2022-10-20T04:37:06.083Z,11.39
2022-10-20T04:39:32.794Z,12.16
2022-10-20T04:42:00.137Z,11.58
2022-10-20T04:44:27.034Z,12.07
2022-10-20T04:46:56.772Z,11.83
2022-10-20T04:49:23.780Z,11.39
2022-10-20T04:51:50.677Z,11.46
2022-10-20T04:54:18.628Z,11.17
2022-10-20T04:56:45.524Z,11.09
2022-10-20T04:59:13.688Z,10.94
2022-10-20T05:01:41.115Z,10.42
2022-10-20T05:04:08.032Z,10.38
2022-10-20T05:06:34.748Z,10.52
2022-10-20T05:09:04.008Z,10.62
2022-10-20T05:11:31.987Z,11.06
2022-10-20T05:13:58.849Z,10.99
2022-10-20T05:16:25.922Z,10.75
2022-10-20T05:18:53.917Z,10.55
2022-10-20T05:21:23.361Z,10.74
2022-10-20T05:23:56.572Z,10.31
2022-10-20T05:26:23.792Z,10.03
2022-10-20T05:28:51.676Z,9.79
2022-10-20T05:31:20.424Z,10.79
2022-10-20T05:33:51.606Z,11.78
2022-10-20T05:36:22.700Z,11.56
2022-10-20T05:38:52.239Z,10.72
2022-10-20T05:41:21.349Z,11.00
2022-10-20T05:43:50.187Z,10.95
2022-10-20T05:46:22.018Z,10.45
2022-10-20T05:48:48.908Z,10.17
2022-10-20T05:51:16.576Z,10.38
2022-10-20T05:53:44.134Z,10.92
2022-10-20T05:56:14.546Z,11.41
2022-10-20T05:58:43.996Z,11.56
2022-10-20T06:01:23.980Z,12.73
2022-10-20T06:03:54.138Z,13.83
2022-10-20T06:06:22.616Z,14.86
2022-10-20T06:08:51.044Z,15.75
2022-10-20T06:11:21.815Z,16.80
2022-10-20T06:13:51.911Z,17.27
2022-10-20T06:16:23.009Z,17.47
2022-10-20T06:18:50.452Z,17.99
2022-10-20T06:21:21.995Z,18.46
2022-10-20T06:23:49.575Z,19.14
2022-10-20T06:26:18.726Z,18.51
2022-10-20T06:28:47.261Z,18.74
2022-10-20T06:31:19.617Z,19.71
2022-10-20T06:33:47.158Z,20.28
2022-10-20T06:36:14.692Z,21.06
2022-10-20T06:38:42.265Z,21.49
2022-10-20T06:41:12.254Z,22.11
2022-10-20T06:43:39.197Z,23.15
2022-10-20T06:46:08.750Z,23.80
2022-10-20T06:48:36.175Z,23.94
2022-10-20T06:51:08.792Z,24.13
2022-10-20T06:53:36.482Z,23.38
2022-10-20T06:56:09.250Z,24.44
2022-10-20T06:58:37.592Z,25.22
2022-10-20T07:01:11.075Z,25.72
2022-10-20T07:03:39.063Z,25.82
2022-10-20T07:06:06.945Z,25.19
2022-10-20T07:08:35.293Z,24.66
2022-10-20T07:11:03.257Z,24.60
2022-10-20T07:13:30.702Z,25.53
2022-10-20T07:15:58.902Z,24.52
2022-10-20T07:18:27.149Z,23.85
2022-10-20T07:21:02.394Z,23.10
2022-10-20T07:23:31.059Z,22.45
2022-10-20T07:26:11.293Z,20.05
2022-10-20T07:28:39.864Z,20.26
2022-10-20T07:31:08.855Z,19.11
2022-10-20T07:33:35.799Z,19.19
2022-10-20T07:36:03.051Z,20.32
2022-10-20T07:38:29.880Z,19.41
2022-10-20T07:41:03.109Z,19.67
2022-10-20T07:43:30.389Z,19.56
2022-10-20T07:45:58.247Z,18.59
2022-10-20T07:48:25.125Z,18.20
2022-10-20T07:50:54.754Z,18.61
2022-10-20T07:53:21.607Z,18.65
2022-10-20T07:55:48.479Z,18.25
2022-10-20T07:58:18.555Z,18.50
2022-10-20T08:00:45.835Z,18.09
2022-10-20T08:03:12.702Z,19.06
2022-10-20T08:05:39.541Z,18.52
2022-10-20T08:08:06.468Z,19.00
2022-10-20T08:10:33.299Z,19.57
2022-10-20T08:13:05.369Z,19.89
2022-10-20T08:15:37.130Z,19.05
2022-10-20T08:18:06.352Z,18.64
2022-10-20T08:20:35.825Z,17.95
2022-10-20T08:23:07.478Z,17.27
2022-10-20T08:25:40.051Z,17.73
2022-10-20T08:28:12.650Z,17.33
2022-10-20T08:30:43.906Z,17.21
2022-10-20T08:33:10.923Z,17.84
2022-10-20T08:35:37.765Z,17.86
2022-10-20T08:38:06.963Z,18.89
2022-10-20T08:40:35.076Z,18.91
2022-10-20T08:43:01.949Z,19.23
2022-10-20T08:45:29.523Z,19.65
2022-10-20T08:47:57.901Z,19.70
2022-10-20T08:50:28.298Z,19.23
2022-10-20T08:52:58.174Z,20.46
2022-10-20T08:55:33.010Z,19.43
2022-10-20T08:58:10.754Z,20.75
2022-10-20T09:00:45.739Z,20.38
2022-10-20T09:03:24.662Z,20.35
2022-10-20T09:05:56.837Z,19.98
2022-10-20T09:08:26.969Z,19.51
2022-10-20T09:10:54.708Z,19.71
2022-10-20T09:13:27.065Z,19.21
2022-10-20T09:15:59.523Z,20.14
2022-10-20T09:18:26.581Z,20.04
2022-10-20T09:20:59.299Z,20.10
2022-10-20T09:23:47.138Z,20.21
2022-10-20T09:26:54.687Z,20.10
2022-10-20T09:29:35.871Z,19.26
2022-10-20T09:32:15.367Z,19.88
2022-10-20T09:34:49.648Z,19.40
2022-10-20T09:37:19.159Z,19.10
2022-10-20T09:39:58.759Z,19.05
2022-10-20T09:42:35.711Z,19.41
2022-10-20T09:45:17.046Z,19.02
2022-10-20T09:47:46.521Z,19.19
2022-10-20T09:50:29.477Z,18.35
2022-10-20T09:52:56.730Z,18.43
2022-10-20T09:55:42.378Z,18.26
2022-10-20T09:58:27.189Z,17.93
2022-10-20T10:01:12.961Z,18.12
2022-10-20T10:03:45.251Z,18.30
2022-10-20T10:06:34.794Z,18.44
2022-10-20T10:09:02.616Z,18.54
2022-10-20T10:11:34.782Z,18.68
2022-10-20T10:14:02.389Z,19.43
2022-10-20T10:16:40.781Z,18.97
2022-10-20T10:19:08.238Z,19.03
2022-10-20T10:21:49.189Z,19.36
2022-10-20T10:24:43.274Z,20.30
2022-10-20T10:27:27.678Z,19.40
2022-10-20T10:29:55.905Z,19.17
2022-10-20T10:32:28.490Z,19.76
2022-10-20T10:35:05.166Z,18.86
2022-10-20T10:37:34.845Z,18.98
2022-10-20T10:40:05.665Z,19.45
2022-10-20T10:42:53.955Z,20.17
2022-10-20T10:45:36.700Z,19.63
2022-10-20T10:48:19.074Z,19.35
2022-10-20T10:51:00.888Z,20.05
2022-10-20T10:54:10.836Z,20.86
2022-10-20T10:56:57.321Z,20.60
2022-10-20T10:59:30.268Z,20.26
2022-10-20T11:02:18.545Z,20.58
2022-10-20T11:05:19.248Z,21.21
2022-10-20T11:07:46.037Z,20.95
2022-10-20T11:10:23.421Z,21.06
2022-10-20T11:13:15.171Z,20.51
2022-10-20T11:16:06.753Z,21.11
2022-10-20T11:18:45.395Z,21.06
2022-10-20T11:21:14.932Z,20.69
2022-10-20T11:23:53.953Z,21.00
2022-10-20T11:26:29.301Z,21.70
2022-10-20T11:28:57.250Z,22.01
2022-10-20T11:31:37.363Z,21.48
2022-10-20T11:34:15.051Z,20.93
2022-10-20T11:36:47.233Z,22.46
2022-10-20T11:39:45.556Z,22.28
2022-10-20T11:42:30.837Z,21.66
2022-10-20T11:45:00.551Z,21.87
2022-10-20T11:47:35.020Z,21.40
2022-10-20T11:50:05.868Z,21.55
2022-10-20T11:52:59.152Z,21.14
2022-10-20T11:55:38.243Z,21.51
2022-10-20T11:58:16.000Z,19.76
2022-10-20T12:00:59.546Z,20.20
2022-10-20T12:04:10.746Z,20.96
2022-10-20T12:07:07.246Z,20.02
2022-10-20T12:10:08.785Z,20.36
2022-10-20T12:12:53.739Z,19.71
2022-10-20T12:15:28.993Z,19.50
2022-10-20T12:18:19.116Z,19.17
2022-10-20T12:20:51.991Z,20.01
2022-10-20T12:23:51.963Z,20.04
2022-10-20T12:26:29.746Z,20.43
2022-10-20T12:28:57.538Z,19.62
2022-10-20T12:31:25.876Z,19.40
2022-10-20T12:33:55.392Z,19.93
2022-10-20T12:36:29.849Z,19.50
2022-10-20T12:39:29.257Z,19.93
2022-10-20T12:42:01.498Z,20.41
2022-10-20T12:44:32.707Z,20.12
2022-10-20T12:47:09.070Z,20.05
2022-10-20T12:49:39.140Z,19.78
2022-10-20T12:52:07.883Z,20.11
2022-10-20T12:54:41.167Z,20.57
2022-10-20T12:57:36.924Z,21.09
2022-10-20T13:00:28.541Z,20.08
2022-10-20T13:02:58.722Z,18.56
2022-10-20T13:05:28.332Z,20.61
2022-10-20T13:07:59.988Z,20.45
2022-10-20T13:10:36.748Z,20.12
2022-10-20T13:13:03.552Z,20.43
2022-10-20T13:15:34.991Z,20.46
2022-10-20T13:18:13.971Z,21.20
2022-10-20T13:20:44.590Z,21.14
2022-10-20T13:23:39.566Z,20.51
2022-10-20T13:26:17.969Z,19.58
2022-10-20T13:28:48.025Z,20.07
2022-10-20T13:31:17.288Z,20.27
2022-10-20T13:34:12.044Z,20.27
2022-10-20T13:37:03.855Z,19.96
2022-10-20T13:40:16.379Z,20.12
2022-10-20T13:43:10.477Z,19.44
2022-10-20T13:45:53.884Z,19.03
2022-10-20T13:48:42.211Z,20.43
2022-10-20T13:51:27.194Z,20.55
2022-10-20T13:53:56.818Z,20.24
2022-10-20T13:56:26.553Z,20.40
2022-10-20T13:59:05.677Z,19.78
2022-10-20T14:01:35.705Z,20.02
2022-10-20T14:04:02.616Z,21.02
2022-10-20T14:06:37.367Z,20.69
2022-10-20T14:09:17.817Z,20.16
2022-10-20T14:11:47.347Z,20.60
2022-10-20T14:14:16.902Z,20.57
2022-10-20T14:16:52.207Z,20.28
2022-10-20T14:19:27.839Z,20.76
2022-10-20T14:22:06.972Z,20.71
2022-10-20T14:24:37.133Z,20.11
2022-10-20T14:27:05.563Z,20.54
2022-10-20T14:29:35.417Z,19.14
2022-10-20T14:32:02.329Z,19.29
2022-10-20T14:34:31.833Z,19.33
2022-10-20T14:36:58.837Z,19.75
2022-10-20T14:39:36.325Z,19.42
2022-10-20T14:42:05.959Z,19.53
2022-10-20T14:44:32.966Z,19.68
2022-10-20T14:47:05.463Z,20.46
2022-10-20T14:49:35.488Z,20.69
2022-10-20T14:52:04.753Z,20.55
2022-10-20T14:57:10.248Z,20.29
2022-10-20T14:59:59.310Z,20.34
2022-10-20T15:02:28.859Z,21.34
2022-10-20T15:04:55.722Z,20.89
2022-10-20T15:07:33.510Z,20.85
2022-10-20T15:10:08.665Z,20.72
2022-10-20T15:12:40.665Z,20.67
2022-10-20T15:15:21.520Z,20.69
2022-10-20T15:17:51.643Z,20.84
2022-10-20T15:20:33.810Z,20.06
2022-10-20T15:23:13.881Z,20.63
2022-10-20T15:25:59.414Z,21.41
2022-10-20T15:28:32.545Z,21.03
2022-10-20T15:31:00.262Z,21.32
2022-10-20T15:33:27.314Z,20.85
2022-10-20T15:35:55.230Z,20.97
2022-10-20T15:38:22.147Z,20.77
2022-10-20T15:40:49.125Z,20.62
2022-10-20T15:43:17.631Z,20.45
2022-10-20T15:45:47.972Z,20.96
2022-10-20T15:48:15.008Z,21.02
2022-10-20T15:50:42.056Z,20.41
2022-10-20T15:53:11.281Z,20.82
2022-10-20T15:55:41.845Z,20.03
2022-10-20T15:58:08.986Z,19.76
2022-10-20T16:00:36.438Z,19.31
2022-10-20T16:03:03.864Z,18.06
2022-10-20T16:05:30.747Z,18.68
2022-10-20T16:07:57.614Z,19.41
2022-10-20T16:10:26.362Z,19.80
2022-10-20T16:12:53.204Z,19.16
2022-10-20T16:15:20.192Z,19.33
2022-10-20T16:17:47.261Z,19.30
2022-10-20T16:20:15.039Z,19.47
2022-10-20T16:22:41.867Z,18.07
2022-10-20T16:25:09.234Z,18.56
2022-10-20T16:27:36.434Z,17.75
2022-10-20T16:30:04.903Z,17.77
2022-10-20T16:32:34.594Z,17.69
2022-10-20T16:35:04.281Z,17.76
2022-10-20T16:37:32.205Z,17.60
2022-10-20T16:39:59.805Z,17.50
2022-10-20T16:42:27.679Z,16.99
2022-10-20T16:44:54.560Z,17.03
2022-10-20T16:47:21.515Z,16.94
2022-10-20T16:49:48.423Z,16.75
2022-10-20T16:52:15.288Z,17.32
2022-10-20T16:57:14.080Z,16.29
2022-10-20T16:59:42.641Z,16.70
2022-10-20T17:02:11.555Z,16.68
2022-10-20T17:04:38.580Z,17.05
2022-10-20T17:07:05.877Z,16.85
2022-10-20T17:09:32.714Z,17.30
2022-10-20T17:11:59.578Z,17.20
2022-10-20T17:14:26.530Z,17.30
2022-10-20T17:16:53.435Z,17.42
2022-10-20T17:19:20.265Z,17.28
2022-10-20T17:21:47.080Z,16.63
2022-10-20T17:24:14.028Z,16.78
2022-10-20T17:26:41.769Z,17.27
2022-10-20T17:29:09.656Z,17.26
2022-10-20T17:31:38.393Z,16.85
2022-10-20T17:34:05.531Z,17.50
2022-10-20T17:36:32.888Z,17.26
2022-10-20T17:39:06.247Z,17.13
2022-10-20T17:41:33.541Z,17.39
2022-10-20T17:44:04.813Z,16.70
2022-10-20T17:46:32.123Z,16.62
2022-10-20T17:49:01.694Z,17.00
2022-10-20T17:51:31.962Z,16.90
2022-10-20T17:54:01.546Z,16.98
2022-10-20T17:56:36.369Z,16.46
2022-10-20T17:59:05.560Z,16.48
2022-10-20T18:01:38.066Z,16.97
2022-10-20T18:04:08.165Z,17.19
2022-10-20T18:06:35.951Z,17.02
2022-10-20T18:09:05.999Z,17.05
2022-10-20T18:11:34.803Z,16.73
2022-10-20T18:14:02.000Z,16.73
2022-10-20T18:16:30.829Z,16.44
2022-10-20T18:21:31.511Z,16.34
2022-10-20T18:24:02.450Z,16.40
2022-10-20T18:26:30.901Z,16.23
2022-10-20T18:28:58.272Z,15.76
2022-10-20T18:31:27.581Z,16.45
2022-10-20T18:34:06.673Z,16.39
2022-10-20T18:36:36.951Z,16.07
2022-10-20T18:39:07.637Z,16.08
2022-10-20T18:41:38.274Z,16.19
2022-10-20T18:44:08.325Z,15.77
2022-10-20T18:46:35.270Z,15.36
2022-10-20T18:49:04.331Z,14.90
2022-10-20T18:51:31.827Z,15.00
2022-10-20T18:54:00.012Z,16.03
2022-10-20T18:56:29.435Z,14.85
2022-10-20T18:59:01.583Z,14.75
2022-10-20T19:01:30.973Z,15.21
2022-10-20T19:03:59.000Z,15.09
2022-10-20T19:06:37.268Z,16.15
2022-10-20T19:09:06.771Z,14.87
2022-10-20T19:11:37.024Z,14.72
2022-10-20T19:14:04.053Z,14.97
2022-10-20T19:16:32.815Z,14.86
2022-10-20T19:19:01.287Z,15.01
2022-10-20T19:21:29.542Z,14.63
2022-10-20T19:24:06.823Z,14.55
2022-10-20T19:26:38.362Z,14.82
2022-10-20T19:29:08.311Z,15.05
2022-10-20T19:31:38.296Z,15.43
2022-10-20T19:34:11.336Z,14.91
2022-10-20T19:36:40.342Z,15.90
2022-10-20T19:39:08.972Z,15.78
2022-10-20T19:41:35.879Z,15.67
2022-10-20T19:44:03.387Z,15.62
2022-10-20T19:46:30.255Z,15.27
2022-10-20T19:48:57.746Z,14.95
2022-10-20T19:51:24.821Z,14.87
2022-10-20T19:53:51.918Z,14.85
2022-10-20T19:56:18.799Z,14.24
2022-10-20T19:58:46.807Z,14.61
2022-10-20T20:01:13.943Z,13.82
2022-10-20T20:03:41.018Z,13.85
2022-10-20T20:06:17.400Z,14.25
2022-10-20T20:08:45.846Z,13.62
2022-10-20T20:11:21.426Z,13.83
2022-10-20T20:13:48.274Z,14.14
2022-10-20T20:16:14.938Z,13.43
2022-10-20T20:18:41.802Z,13.92
2022-10-20T20:21:08.655Z,13.13
2022-10-20T20:23:47.557Z,12.80
2022-10-20T20:26:21.488Z,13.52
2022-10-20T20:28:48.635Z,13.40
2022-10-20T20:31:15.509Z,13.99
2022-10-20T20:33:42.429Z,13.55
2022-10-20T20:36:09.853Z,14.23
2022-10-20T20:38:38.432Z,13.51
2022-10-20T20:41:07.205Z,14.02
2022-10-20T20:43:37.468Z,13.81
2022-10-20T20:46:08.841Z,12.76
2022-10-20T20:48:36.408Z,13.90
2022-10-20T20:51:03.837Z,14.03
2022-10-20T20:53:31.301Z,14.03
2022-10-20T20:56:00.079Z,13.85
2022-10-20T20:58:28.432Z,14.37
2022-10-20T21:01:22.642Z,14.40
2022-10-20T21:03:56.449Z,14.41
2022-10-20T21:06:33.300Z,14.49
2022-10-20T21:09:06.960Z,14.31
2022-10-20T21:11:33.879Z,14.85
2022-10-20T21:14:00.921Z,14.82
2022-10-20T21:16:35.117Z,14.96
2022-10-20T21:19:04.607Z,14.83
2022-10-20T21:21:39.121Z,14.64
2022-10-20T21:24:06.636Z,13.50
2022-10-20T21:26:33.587Z,13.58
2022-10-20T21:29:00.583Z,13.77
2022-10-20T21:31:28.766Z,14.34
2022-10-20T21:33:57.590Z,14.26
2022-10-20T21:36:25.389Z,14.47
2022-10-20T21:38:53.071Z,14.40
2022-10-20T21:41:37.613Z,15.03
2022-10-20T21:44:06.722Z,15.23
2022-10-20T21:46:36.217Z,14.96
2022-10-20T21:49:05.495Z,14.34
2022-10-20T21:51:39.841Z,14.23
2022-10-20T21:54:08.876Z,14.86
2022-10-20T21:56:37.471Z,14.44
2022-10-20T21:59:05.406Z,14.32
2022-10-20T22:01:32.495Z,14.05
2022-10-20T22:03:59.459Z,13.08
2022-10-20T22:06:27.771Z,13.72
2022-10-20T22:08:57.550Z,13.55
2022-10-20T22:11:30.771Z,12.84
2022-10-20T22:13:58.022Z,11.96
2022-10-20T22:16:27.688Z,12.74
2022-10-20T22:19:13.961Z,12.23
2022-10-20T22:21:42.624Z,12.32
2022-10-20T22:24:09.787Z,13.15
2022-10-20T22:26:37.045Z,13.45
2022-10-20T22:29:05.210Z,13.27
2022-10-20T22:31:32.133Z,12.99
2022-10-20T22:33:59.845Z,13.20
2022-10-20T22:36:27.495Z,13.59
2022-10-20T22:38:54.402Z,14.28
2022-10-20T22:41:21.542Z,14.62
2022-10-20T22:43:48.624Z,14.64
2022-10-20T22:46:18.598Z,15.13
2022-10-20T22:48:46.471Z,14.78
2022-10-20T22:51:13.437Z,14.43
2022-10-20T22:53:40.756Z,14.36
2022-10-20T22:56:19.408Z,14.16
2022-10-20T22:58:47.039Z,13.79
2022-10-20T23:01:16.778Z,14.04
2022-10-20T23:03:44.806Z,13.95
2022-10-20T23:06:29.648Z,14.34
2022-10-20T23:08:56.621Z,14.14
2022-10-20T23:11:23.967Z,14.11
2022-10-20T23:13:51.339Z,13.03
2022-10-20T23:16:19.577Z,13.60
2022-10-20T23:18:46.745Z,13.54
2022-10-20T23:21:14.414Z,13.61
2022-10-20T23:23:41.582Z,13.50
2022-10-20T23:26:09.254Z,13.89
2022-10-20T23:28:36.936Z,13.38
2022-10-20T23:31:18.894Z,13.38
2022-10-20T23:33:47.045Z,12.96
2022-10-20T23:36:14.949Z,13.78
2022-10-20T23:38:42.803Z,13.67
2022-10-20T23:41:10.228Z,13.73
2022-10-20T23:46:09.631Z,12.15
2022-10-20T23:48:36.629Z,13.39
2022-10-20T23:51:03.697Z,13.61
2022-10-20T23:53:30.977Z,12.90
2022-10-20T23:55:57.803Z,13.50
2022-10-20T23:58:24.522Z,13.55
